Аэропорт: Иркутск. Иркутск

ICAO: UIII

METAR:
2021-04-21 21:00:00
UIII 212100Z 32003MPS CAVOK M06/M08 Q1024 R30/60D NOSIG RMK QFE723/0964
METAR:
2021-04-21 20:00:00
TAF UIII 212000Z 2121/2221 30003MPS 9999 BKN040CB